Time;durP1;ratioP1;P1;durP2;ratioP2;P2;SDS_P1;SDS_P2;PMS_P1;PMS_P2;Temp;Humidity;BMP_temperature;BMP_pressure;BME280_temperature;BME280_humidity;BME280_pressure;Samples;Min_cycle;Max_cycle;Signal;HPM_P1;HPM_P2
2022/01/06 00:00:07;;;;;;;13.40;2.80;;;4.00;99.90;;;;;;5020210;27;20235;-90
2022/01/06 00:02:36;;;;;;;20.95;2.92;;;4.00;99.90;;;;;;5044814;27;20683;-90
2022/01/06 00:05:04;;;;;;;18.60;2.78;;;4.00;99.90;;;;;;5006666;27;20410;-89
2022/01/06 00:07:31;;;;;;;19.55;2.53;;;4.00;99.90;;;;;;4997055;27;20075;-89
2022/01/06 00:09:58;;;;;;;18.38;2.90;;;4.10;99.90;;;;;;5012735;28;20085;-88
2022/01/06 00:12:32;;;;;;;16.67;2.20;;;4.00;99.90;;;;;;5013920;28;20051;-90
2022/01/06 00:18:13;;;;;;;16.02;3.15;;;3.90;99.90;;;;;;5033254;28;20052;-89
2022/01/06 00:25:47;;;;;;;13.68;2.20;;;3.90;99.90;;;;;;5028313;28;20528;-90
2022/01/06 00:28:23;;;;;;;14.65;2.20;;;3.90;99.90;;;;;;4994297;28;20074;-89
2022/01/06 00:30:49;;;;;;;12.63;2.05;;;4.00;99.90;;;;;;4995681;28;20538;-89
2022/01/06 00:33:19;;;;;;;12.55;2.03;;;3.90;99.90;;;;;;5012133;28;20054;-90
2022/01/06 00:35:47;;;;;;;14.32;2.25;;;3.90;99.90;;;;;;5030038;28;20453;-90
2022/01/06 00:38:13;;;;;;;14.43;2.35;;;3.90;99.90;;;;;;4989739;28;20701;-89
2022/01/06 00:40:39;;;;;;;18.17;2.80;;;3.90;99.90;;;;;;4997761;28;20043;-90
2022/01/06 00:43:06;;;;;;;14.68;2.10;;;3.90;99.90;;;;;;4999730;28;20052;-90
2022/01/06 00:45:33;;;;;;;16.95;2.47;;;3.90;99.90;;;;;;5013465;28;20052;-90
2022/01/06 00:47:59;;;;;;;12.00;1.80;;;3.80;99.90;;;;;;4998965;28;20040;-91
2022/01/06 00:50:34;;;;;;;16.42;2.20;;;3.70;99.90;;;;;;5017867;28;20390;-90
2022/01/06 00:53:03;;;;;;;13.55;2.33;;;3.70;99.90;;;;;;5030783;28;20043;-91
2022/01/06 00:55:31;;;;;;;12.77;2.13;;;3.70;99.90;;;;;;5012470;28;20051;-90
2022/01/06 00:57:57;;;;;;;17.25;2.63;;;3.70;99.90;;;;;;5018413;28;20368;-91
2022/01/06 01:00:27;;;;;;;16.48;2.08;;;3.60;99.90;;;;;;4984314;28;20953;-90
2022/01/06 01:02:53;;;;;;;14.77;2.28;;;3.60;99.90;;;;;;4993175;28;20118;-90
2022/01/06 01:05:22;;;;;;;19.85;2.67;;;3.60;99.90;;;;;;5014169;28;20221;-90
2022/01/06 01:07:48;;;;;;;16.35;2.38;;;3.60;99.90;;;;;;5034531;28;20043;-90
2022/01/06 01:10:14;;;;;;;15.82;2.58;;;3.60;99.90;;;;;;5021844;27;20076;-90
2022/01/06 01:12:46;;;;;;;15.18;2.33;;;3.50;99.90;;;;;;5016979;27;20059;-91
2022/01/06 01:15:19;;;;;;;14.15;2.38;;;3.50;99.90;;;;;;5022305;27;20873;-90
2022/01/06 01:17:47;;;;;;;17.67;2.63;;;3.50;99.90;;;;;;5010152;27;20039;-90
2022/01/06 01:20:14;;;;;;;17.30;2.38;;;3.50;99.90;;;;;;5034017;27;20341;-90
2022/01/06 01:22:40;;;;;;;13.65;2.67;;;3.40;99.90;;;;;;5038121;27;20051;-89
2022/01/06 01:25:06;;;;;;;14.70;2.33;;;3.40;99.90;;;;;;5011806;27;20165;-89
2022/01/06 01:27:38;;;;;;;13.30;2.38;;;3.40;99.90;;;;;;5006509;27;20051;-89
2022/01/06 01:30:10;;;;;;;15.02;2.63;;;3.30;99.90;;;;;;5015368;27;20066;-90
2022/01/06 01:32:38;;;;;;;20.05;2.72;;;3.40;99.90;;;;;;5002881;27;20129;-89
2022/01/06 01:35:07;;;;;;;20.33;3.35;;;3.30;99.90;;;;;;5032539;27;20043;-90
2022/01/06 01:37:33;;;;;;;14.68;2.20;;;3.30;99.90;;;;;;5024097;27;20135;-89
2022/01/06 01:39:59;;;;;;;14.00;2.47;;;3.30;99.90;;;;;;5038621;27;20094;-91
2022/01/06 01:42:26;;;;;;;18.52;3.03;;;3.40;99.90;;;;;;5020656;27;20055;-90
2022/01/06 01:44:58;;;;;;;17.60;2.53;;;3.40;99.90;;;;;;4999809;27;20471;-90
2022/01/06 01:47:31;;;;;;;26.95;3.38;;;3.40;99.90;;;;;;5017243;27;20051;-90
2022/01/06 01:50:11;;;;;;;18.02;2.50;;;3.30;99.90;;;;;;5014498;27;20047;-90
2022/01/06 01:52:39;;;;;;;22.58;3.15;;;3.20;99.90;;;;;;5021358;27;20047;-90
2022/01/06 01:55:05;;;;;;;18.05;2.83;;;3.30;99.90;;;;;;5013981;27;20047;-89
2022/01/06 01:57:34;;;;;;;19.90;3.40;;;3.20;99.90;;;;;;5007881;27;20438;-90
2022/01/06 02:00:00;;;;;;;26.55;3.80;;;3.20;99.90;;;;;;5009607;27;20047;-89
2022/01/06 02:02:28;;;;;;;20.45;2.80;;;3.20;99.90;;;;;;5005537;27;20405;-89
2022/01/06 02:04:54;;;;;;;21.42;3.28;;;3.10;99.90;;;;;;5004538;27;20589;-90
2022/01/06 02:07:22;;;;;;;20.65;3.55;;;3.10;99.90;;;;;;5018987;27;20039;-91
2022/01/06 02:09:48;;;;;;;23.73;3.28;;;3.10;99.90;;;;;;5025297;27;20059;-90
2022/01/06 02:12:37;;;;;;;25.77;3.65;;;3.10;99.90;;;;;;5010974;27;20058;-90
2022/01/06 02:15:08;;;;;;;21.50;3.40;;;3.00;99.90;;;;;;5021145;27;20520;-90
2022/01/06 02:17:36;;;;;;;24.50;3.38;;;3.10;99.90;;;;;;5034494;27;20386;-91
2022/01/06 02:20:08;;;;;;;27.83;3.40;;;3.10;99.90;;;;;;5020006;27;20574;-90
2022/01/06 02:22:34;;;;;;;19.65;3.30;;;3.10;99.90;;;;;;5022734;27;20047;-91
2022/01/06 02:25:15;;;;;;;23.65;3.47;;;3.10;99.90;;;;;;5012229;27;20768;-89
2022/01/06 02:27:42;;;;;;;24.08;3.60;;;3.10;99.90;;;;;;5015013;27;20856;-90
2022/01/06 02:30:09;;;;;;;24.50;3.65;;;3.10;99.90;;;;;;5033092;27;20100;-90
2022/01/06 02:32:36;;;;;;;20.42;3.35;;;3.00;99.90;;;;;;5027383;27;20273;-90
2022/01/06 02:35:22;;;;;;;18.00;3.55;;;3.10;99.90;;;;;;5013090;27;20553;-90
2022/01/06 02:37:49;;;;;;;21.10;3.15;;;3.00;99.90;;;;;;5035042;27;20762;-91
2022/01/06 02:40:20;;;;;;;20.35;3.67;;;3.00;99.90;;;;;;5018485;27;20064;-90
2022/01/06 02:42:50;;;;;;;21.90;3.28;;;2.90;99.90;;;;;;5016505;27;20849;-90
2022/01/06 02:45:17;;;;;;;22.10;3.55;;;2.90;99.90;;;;;;5040955;27;20404;-91
2022/01/06 02:47:45;;;;;;;22.08;3.72;;;3.00;99.90;;;;;;5035491;27;20446;-90
2022/01/06 02:50:12;;;;;;;20.10;3.28;;;2.90;99.90;;;;;;5013710;27;20047;-91
2022/01/06 02:52:38;;;;;;;20.52;3.00;;;2.90;99.90;;;;;;5023325;27;20544;-91
2022/01/06 02:55:09;;;;;;;29.98;3.88;;;2.90;99.90;;;;;;5027854;27;20051;-90
2022/01/06 02:57:36;;;;;;;24.38;3.58;;;2.80;99.90;;;;;;5019408;28;20047;-89
2022/01/06 03:00:08;;;;;;;19.45;3.65;;;2.80;99.90;;;;;;5012409;28;20547;-90
2022/01/06 03:02:34;;;;;;;22.20;2.88;;;2.80;99.90;;;;;;4986674;27;20048;-90
2022/01/06 03:05:00;;;;;;;28.77;4.32;;;2.70;99.90;;;;;;5010997;28;20051;-90
2022/01/06 03:07:26;;;;;;;23.92;2.90;;;2.80;99.90;;;;;;5013752;28;20136;-90
2022/01/06 03:09:55;;;;;;;25.30;3.70;;;2.70;99.90;;;;;;5008814;28;20057;-89
2022/01/06 03:12:28;;;;;;;21.13;3.05;;;2.70;99.90;;;;;;5004747;28;20486;-91
2022/01/06 03:14:56;;;;;;;20.63;3.38;;;2.70;99.90;;;;;;4988422;28;20562;-90
2022/01/06 03:17:22;;;;;;;22.63;3.53;;;2.70;99.90;;;;;;5026851;28;20465;-89
2022/01/06 03:19:51;;;;;;;23.27;3.75;;;2.70;99.90;;;;;;4991114;28;20899;-90
2022/01/06 03:22:17;;;;;;;18.55;3.58;;;2.70;99.90;;;;;;4998800;28;20739;-90
2022/01/06 03:24:45;;;;;;;22.55;3.95;;;2.70;99.90;;;;;;5006822;28;20091;-88
2022/01/06 03:27:14;;;;;;;18.08;3.55;;;2.80;99.90;;;;;;5014689;28;20039;-90
2022/01/06 03:29:40;;;;;;;24.25;3.80;;;2.80;99.90;;;;;;5003265;27;20042;-90
2022/01/06 03:32:09;;;;;;;24.65;3.30;;;2.90;99.90;;;;;;5001936;27;20071;-89
2022/01/06 03:34:36;;;;;;;25.67;4.05;;;3.00;99.90;;;;;;5002102;27;20493;-91
2022/01/06 03:37:06;;;;;;;21.85;3.55;;;3.00;99.90;;;;;;5004762;27;20039;-89
2022/01/06 03:39:34;;;;;;;20.63;3.33;;;3.00;99.90;;;;;;5003623;27;20508;-91
2022/01/06 03:42:00;;;;;;;22.98;4.38;;;3.00;99.90;;;;;;5017541;27;20872;-89
2022/01/06 03:44:26;;;;;;;16.55;3.00;;;3.10;99.90;;;;;;5004021;27;20051;-89
2022/01/06 03:46:57;;;;;;;17.95;2.90;;;3.20;99.90;;;;;;5010148;27;20065;-90
2022/01/06 03:49:23;;;;;;;15.65;2.70;;;3.20;99.90;;;;;;4998635;27;20594;-89
2022/01/06 03:51:53;;;;;;;20.45;3.00;;;3.20;99.90;;;;;;5008855;27;20039;-89
2022/01/06 03:54:22;;;;;;;20.90;3.22;;;3.20;99.90;;;;;;5005039;27;20211;-90
2022/01/06 03:56:48;;;;;;;20.65;3.22;;;3.20;99.90;;;;;;5005255;27;20067;-90
2022/01/06 03:59:18;;;;;;;17.60;3.00;;;3.10;99.90;;;;;;5023355;27;20031;-89
2022/01/06 04:01:45;;;;;;;19.90;2.80;;;3.10;99.90;;;;;;5013892;27;20043;-90
2022/01/06 04:04:13;;;;;;;19.70;2.97;;;3.10;99.90;;;;;;5032006;27;20099;-89
2022/01/06 04:06:39;;;;;;;20.58;3.28;;;3.00;99.90;;;;;;5014151;27;20051;-90
2022/01/06 04:09:06;;;;;;;19.42;3.05;;;3.00;99.90;;;;;;4983091;28;20420;-90
2022/01/06 04:11:32;;;;;;;21.33;3.40;;;2.90;99.90;;;;;;4994086;28;20421;-89
2022/01/06 04:13:58;;;;;;;25.40;3.17;;;2.90;99.90;;;;;;5010996;28;20043;-90
2022/01/06 04:16:25;;;;;;;17.95;3.25;;;2.90;99.90;;;;;;5008316;28;20079;-90
2022/01/06 04:18:54;;;;;;;20.73;3.55;;;2.80;99.90;;;;;;5013379;28;20039;-90
2022/01/06 04:21:20;;;;;;;22.83;3.53;;;2.80;99.90;;;;;;5026132;28;20051;-89
2022/01/06 04:23:51;;;;;;;21.30;3.28;;;2.70;99.90;;;;;;4997003;28;20048;-89
2022/01/06 04:26:20;;;;;;;22.70;3.33;;;2.60;99.90;;;;;;5018856;28;20505;-89
2022/01/06 04:28:45;;;;;;;22.23;3.60;;;2.60;99.90;;;;;;4999460;28;20215;-89
2022/01/06 04:31:14;;;;;;;23.58;3.70;;;2.50;99.90;;;;;;5002357;28;20044;-88
2022/01/06 04:33:40;;;;;;;22.38;3.58;;;2.40;99.90;;;;;;4999831;28;20073;-89
2022/01/06 04:36:06;;;;;;;24.55;3.88;;;2.40;99.90;;;;;;5023983;28;20112;-89
2022/01/06 04:38:33;;;;;;;18.50;3.25;;;2.40;99.90;;;;;;5004790;28;20048;-88
2022/01/06 04:40:59;;;;;;;17.73;3.28;;;2.30;99.90;;;;;;4989583;28;20246;-89
2022/01/06 04:43:25;;;;;;;18.92;2.92;;;2.30;99.90;;;;;;4987592;28;20043;-89
2022/01/06 04:45:51;;;;;;;20.63;4.07;;;2.20;99.90;;;;;;5004170;28;20195;-89
2022/01/06 04:48:19;;;;;;;15.15;2.53;;;2.20;99.90;;;;;;4985640;28;20046;-89
2022/01/06 04:50:45;;;;;;;17.92;3.22;;;1.80;99.90;;;;;;4997313;28;20047;-89
2022/01/06 04:53:11;;;;;;;15.07;2.92;;;1.70;99.90;;;;;;5018456;28;20972;-89
2022/01/06 04:55:37;;;;;;;17.38;2.78;;;1.80;99.90;;;;;;4997795;28;20070;-89
2022/01/06 04:58:03;;;;;;;18.33;3.08;;;1.80;99.90;;;;;;4978964;28;20543;-89
2022/01/06 05:00:29;;;;;;;18.52;3.10;;;1.70;99.90;;;;;;4975696;28;20377;-89
2022/01/06 05:02:54;;;;;;;19.98;3.75;;;1.70;99.90;;;;;;4993325;28;20082;-88
2022/01/06 05:05:20;;;;;;;19.63;3.15;;;1.80;99.90;;;;;;4972274;28;20154;-88
2022/01/06 05:07:46;;;;;;;16.02;2.78;;;1.30;99.90;;;;;;5002302;28;20095;-88
2022/01/06 05:10:12;;;;;;;24.50;3.55;;;1.30;99.90;;;;;;5002657;28;20082;-88
2022/01/06 05:12:45;;;;;;;20.17;3.20;;;1.40;99.90;;;;;;4990937;28;20060;-88
2022/01/06 05:15:12;;;;;;;19.05;2.75;;;1.40;99.90;;;;;;4991417;28;20070;-88
2022/01/06 05:17:40;;;;;;;24.60;4.07;;;1.60;99.90;;;;;;5012164;28;20043;-89
2022/01/06 05:20:06;;;;;;;20.80;3.42;;;1.50;99.90;;;;;;5020237;28;20085;-88
2022/01/06 05:22:33;;;;;;;15.68;2.58;;;1.40;99.90;;;;;;4992159;28;20526;-88
2022/01/06 05:24:59;;;;;;;18.33;2.85;;;1.40;99.90;;;;;;5001724;28;20130;-87
2022/01/06 05:27:25;;;;;;;20.45;3.08;;;1.50;99.90;;;;;;5022352;28;20055;-88
2022/01/06 05:29:55;;;;;;;19.83;3.20;;;1.50;99.90;;;;;;5010180;28;20071;-88
2022/01/06 05:32:23;;;;;;;22.58;3.17;;;1.40;99.90;;;;;;5005553;28;20055;-88
2022/01/06 05:34:49;;;;;;;20.70;3.17;;;1.40;99.90;;;;;;5001830;28;20453;-88
2022/01/06 05:37:15;;;;;;;17.05;2.80;;;1.40;99.90;;;;;;4988114;28;20565;-88
2022/01/06 05:39:43;;;;;;;15.77;3.25;;;1.40;99.90;;;;;;4987455;28;20044;-89
2022/01/06 05:42:13;;;;;;;23.75;3.20;;;1.40;99.90;;;;;;5009712;28;20533;-89
2022/01/06 05:44:43;;;;;;;20.30;3.05;;;1.40;99.90;;;;;;4984999;28;20051;-89
2022/01/06 05:47:09;;;;;;;19.13;2.55;;;1.30;99.90;;;;;;5001425;28;20468;-88
2022/01/06 05:49:34;;;;;;;17.63;2.88;;;1.20;99.90;;;;;;5022185;28;20501;-88
2022/01/06 05:52:00;;;;;;;18.98;2.72;;;1.20;99.90;;;;;;5001588;28;20074;-88
2022/01/06 05:54:26;;;;;;;14.45;2.03;;;1.10;99.90;;;;;;5010453;28;20036;-89
2022/01/06 05:56:52;;;;;;;18.88;2.53;;;1.20;99.90;;;;;;5008987;28;20093;-88
2022/01/06 05:59:18;;;;;;;14.82;2.90;;;1.30;99.90;;;;;;4993196;28;20679;-88
2022/01/06 06:01:47;;;;;;;19.08;2.90;;;1.30;99.90;;;;;;5019077;28;20040;-89
2022/01/06 06:04:16;;;;;;;20.45;2.92;;;1.20;99.90;;;;;;5006368;28;20072;-89
2022/01/06 06:06:42;;;;;;;19.02;2.95;;;1.20;99.90;;;;;;5014420;28;20850;-89
2022/01/06 06:09:08;;;;;;;19.85;2.90;;;1.20;99.90;;;;;;5006830;28;20054;-87
2022/01/06 06:11:34;;;;;;;15.40;3.05;;;1.10;99.90;;;;;;5000700;28;20462;-89
2022/01/06 06:14:00;;;;;;;14.88;2.67;;;1.10;99.90;;;;;;5004333;28;20519;-88
2022/01/06 06:16:28;;;;;;;19.77;2.80;;;1.10;99.90;;;;;;4978393;28;20039;-89
2022/01/06 06:18:57;;;;;;;16.35;3.13;;;1.10;99.90;;;;;;5003145;28;20150;-88
2022/01/06 06:21:23;;;;;;;18.20;3.25;;;1.10;99.90;;;;;;4990439;28;20047;-88
2022/01/06 06:23:50;;;;;;;20.88;3.40;;;1.10;99.90;;;;;;4989925;28;20645;-87
2022/01/06 06:26:18;;;;;;;19.60;3.13;;;1.20;99.90;;;;;;4997644;28;20040;-88
2022/01/06 06:28:44;;;;;;;19.20;3.40;;;1.20;99.90;;;;;;5009358;28;20055;-88
2022/01/06 06:31:10;;;;;;;20.27;3.50;;;1.10;99.90;;;;;;4987474;28;20047;-88
2022/01/06 06:33:35;;;;;;;16.45;3.15;;;1.10;99.90;;;;;;4983032;28;20780;-89
2022/01/06 06:36:01;;;;;;;18.23;3.40;;;1.10;99.90;;;;;;5005123;28;20043;-88
2022/01/06 06:38:27;;;;;;;16.80;2.88;;;1.10;99.90;;;;;;4975793;28;20390;-88
2022/01/06 06:40:53;;;;;;;17.65;2.75;;;1.10;99.90;;;;;;4987142;28;20577;-88
2022/01/06 06:43:19;;;;;;;17.52;2.92;;;1.00;99.90;;;;;;4988904;28;20896;-88
2022/01/06 06:45:45;;;;;;;17.90;3.20;;;1.00;99.90;;;;;;4985562;28;20036;-86
2022/01/06 06:48:11;;;;;;;16.95;3.28;;;0.90;99.90;;;;;;4970147;28;20043;-88
2022/01/06 06:50:37;;;;;;;17.65;2.80;;;0.80;99.90;;;;;;5004720;28;20822;-89
2022/01/06 06:53:03;;;;;;;17.75;2.63;;;0.70;99.90;;;;;;5001669;28;20809;-88
2022/01/06 06:55:31;;;;;;;23.92;3.63;;;0.70;99.90;;;;;;5016863;28;20055;-89
2022/01/06 06:58:01;;;;;;;18.25;2.58;;;0.60;99.90;;;;;;4976686;28;20094;-88
2022/01/06 07:00:29;;;;;;;16.27;2.75;;;0.60;99.90;;;;;;5005665;28;20062;-88
2022/01/06 07:02:55;;;;;;;14.63;2.72;;;0.60;99.90;;;;;;4984452;28;20051;-88
2022/01/06 07:05:21;;;;;;;16.40;2.60;;;0.60;99.90;;;;;;5010303;28;20569;-88
2022/01/06 07:07:47;;;;;;;15.85;2.83;;;0.70;99.90;;;;;;5001826;28;20055;-88
2022/01/06 07:10:15;;;;;;;15.88;2.63;;;0.60;99.90;;;;;;4988359;28;20716;-88
2022/01/06 07:12:45;;;;;;;17.55;3.15;;;0.60;99.90;;;;;;4998829;28;20133;-89
2022/01/06 07:15:13;;;;;;;19.23;3.08;;;0.50;99.90;;;;;;4999251;28;20069;-88
2022/01/06 07:17:40;;;;;;;17.85;3.35;;;0.50;99.90;;;;;;4996483;28;20765;-88
2022/01/06 07:20:07;;;;;;;25.70;3.35;;;0.50;99.90;;;;;;4996181;28;20052;-88
2022/01/06 07:22:32;;;;;;;20.40;3.20;;;0.50;99.90;;;;;;4996083;28;20139;-89
2022/01/06 07:25:01;;;;;;;23.02;3.55;;;0.70;99.90;;;;;;4984087;28;20196;-88
2022/01/06 07:27:27;;;;;;;19.42;2.92;;;0.60;99.90;;;;;;4977235;28;20107;-88
2022/01/06 07:29:55;;;;;;;24.08;3.22;;;0.60;99.90;;;;;;4973883;28;20048;-90
2022/01/06 07:32:21;;;;;;;23.77;3.67;;;0.70;99.90;;;;;;4982292;28;20562;-87
2022/01/06 07:34:54;;;;;;;20.60;3.53;;;0.80;99.90;;;;;;4982395;28;20062;-93
2022/01/06 07:37:20;;;;;;;16.63;3.03;;;0.80;99.90;;;;;;4983694;28;20477;-86
2022/01/06 07:39:46;;;;;;;21.08;3.20;;;0.80;99.90;;;;;;4980013;28;20795;-90
2022/01/06 07:42:13;;;;;;;19.83;3.60;;;0.80;99.90;;;;;;4983080;28;20553;-88
2022/01/06 07:44:39;;;;;;;20.15;3.53;;;0.80;99.90;;;;;;4979303;28;21951;-88
2022/01/06 07:47:05;;;;;;;22.25;3.35;;;0.80;99.90;;;;;;5001344;28;20054;-89
2022/01/06 07:49:31;;;;;;;20.85;3.45;;;0.90;99.90;;;;;;5001552;28;20047;-87
2022/01/06 07:51:57;;;;;;;20.13;3.28;;;0.90;99.90;;;;;;4984037;28;20051;-86
2022/01/06 07:54:23;;;;;;;19.27;3.25;;;1.00;99.90;;;;;;4981561;28;20123;-89
2022/01/06 07:56:50;;;;;;;19.17;3.30;;;1.00;99.90;;;;;;4972205;28;20441;-88
2022/01/06 07:59:16;;;;;;;17.80;3.28;;;1.00;99.90;;;;;;4973570;28;20792;-88
2022/01/06 08:01:42;;;;;;;18.33;3.70;;;1.00;99.90;;;;;;4975063;28;20089;-89
2022/01/06 08:04:08;;;;;;;21.92;3.85;;;1.00;99.90;;;;;;4988729;28;20249;-89
2022/01/06 08:06:34;;;;;;;15.77;3.08;;;0.90;99.90;;;;;;4991366;28;20052;-91
2022/01/06 08:09:00;;;;;;;22.27;3.60;;;1.00;99.90;;;;;;4962764;28;20458;-87
2022/01/06 08:11:26;;;;;;;18.95;3.30;;;0.90;99.90;;;;;;4990976;28;20700;-86
2022/01/06 08:13:53;;;;;;;21.38;3.85;;;1.00;99.90;;;;;;5007740;28;20523;-88
2022/01/06 08:16:18;;;;;;;21.25;3.88;;;1.00;99.90;;;;;;5018289;27;20047;-88
2022/01/06 08:18:44;;;;;;;20.38;4.10;;;1.00;99.90;;;;;;5022495;27;20051;-87
2022/01/06 08:21:13;;;;;;;21.17;3.38;;;1.10;99.90;;;;;;5033950;27;20833;-90
2022/01/06 08:23:39;;;;;;;20.38;3.00;;;1.10;99.90;;;;;;5021095;27;20158;-87
2022/01/06 08:26:09;;;;;;;19.48;3.38;;;1.10;99.90;;;;;;5007655;27;20050;-91
2022/01/06 08:28:35;;;;;;;21.83;3.42;;;1.20;99.90;;;;;;5016753;27;20134;-88
2022/01/06 08:31:04;;;;;;;23.08;3.58;;;1.30;99.90;;;;;;5022593;27;20071;-88
2022/01/06 08:33:30;;;;;;;21.15;3.75;;;1.30;99.90;;;;;;4997088;27;20047;-87
2022/01/06 08:35:55;;;;;;;23.58;3.67;;;1.30;99.90;;;;;;4995722;27;21159;-88
2022/01/06 08:38:24;;;;;;;24.85;4.60;;;1.40;99.90;;;;;;5009621;27;20058;-89
2022/01/06 08:40:49;;;;;;;19.98;3.65;;;1.50;99.90;;;;;;5027861;27;20519;-90
2022/01/06 08:43:15;;;;;;;18.23;3.40;;;1.50;99.90;;;;;;4989870;27;20586;-87
2022/01/06 08:45:43;;;;;;;20.25;3.75;;;1.60;99.90;;;;;;5007730;27;20446;-87
2022/01/06 08:48:09;;;;;;;22.77;4.22;;;1.70;99.90;;;;;;5005220;27;20111;-89
2022/01/06 08:50:35;;;;;;;23.70;4.05;;;1.70;99.90;;;;;;5005634;27;20138;-87
2022/01/06 08:53:03;;;;;;;23.17;3.70;;;1.80;99.90;;;;;;5035094;27;20125;-89
2022/01/06 08:55:29;;;;;;;21.85;4.07;;;1.70;99.90;;;;;;5002866;27;20470;-89
2022/01/06 08:57:57;;;;;;;22.20;3.47;;;1.70;99.90;;;;;;4989088;27;20039;-87
2022/01/06 09:00:23;;;;;;;26.70;4.28;;;1.80;99.90;;;;;;5025650;27;20520;-89
2022/01/06 09:02:52;;;;;;;20.40;3.85;;;1.80;99.90;;;;;;5012780;27;20046;-86
2022/01/06 09:05:18;;;;;;;19.48;3.65;;;1.70;99.90;;;;;;5004892;27;20051;-89
2022/01/06 09:07:44;;;;;;;20.65;3.78;;;1.70;99.90;;;;;;5012165;27;20126;-87
2022/01/06 09:10:10;;;;;;;21.52;3.65;;;1.70;99.90;;;;;;5015637;27;20054;-87
2022/01/06 09:12:37;;;;;;;18.00;3.35;;;1.70;99.90;;;;;;5013838;27;20105;-87
2022/01/06 09:15:07;;;;;;;19.05;3.95;;;1.70;99.90;;;;;;5032499;27;20054;-89
2022/01/06 09:17:36;;;;;;;20.10;3.50;;;1.60;99.90;;;;;;5019019;27;20047;-88
2022/01/06 09:20:04;;;;;;;21.05;3.63;;;1.50;99.90;;;;;;5004820;27;20512;-88
2022/01/06 09:22:30;;;;;;;18.17;3.70;;;1.50;99.90;;;;;;5024849;27;20215;-90
2022/01/06 09:24:56;;;;;;;23.85;4.40;;;1.40;99.90;;;;;;5005138;27;20348;-89
2022/01/06 09:27:23;;;;;;;25.92;4.20;;;1.50;99.90;;;;;;5013719;27;20639;-90
2022/01/06 09:29:52;;;;;;;21.85;4.85;;;1.60;99.90;;;;;;5007205;27;20560;-88
2022/01/06 09:32:18;;;;;;;20.33;4.18;;;1.80;99.90;;;;;;5025986;27;20074;-87
2022/01/06 09:34:44;;;;;;;24.55;4.18;;;1.80;99.90;;;;;;5016315;27;20519;-86
2022/01/06 09:37:13;;;;;;;21.45;3.90;;;1.90;99.90;;;;;;5009488;27;20048;-88
2022/01/06 09:39:42;;;;;;;21.88;4.07;;;1.90;99.90;;;;;;5012935;27;20108;-87
2022/01/06 09:42:08;;;;;;;25.00;4.43;;;1.90;99.90;;;;;;5007592;27;20176;-89
2022/01/06 09:44:36;;;;;;;17.45;3.90;;;2.00;99.90;;;;;;5018171;27;20051;-91
2022/01/06 09:47:02;;;;;;;22.60;3.78;;;2.20;99.90;;;;;;5012083;27;20048;-88
2022/01/06 09:49:31;;;;;;;23.83;3.92;;;2.20;99.90;;;;;;5023632;27;20054;-90
2022/01/06 09:51:57;;;;;;;21.65;4.05;;;2.20;99.90;;;;;;5004905;27;20234;-87
2022/01/06 09:54:23;;;;;;;18.83;4.60;;;2.20;99.90;;;;;;5018175;27;20054;-88
2022/01/06 09:56:49;;;;;;;23.35;4.05;;;2.20;99.90;;;;;;4997721;27;20043;-87
2022/01/06 09:59:15;;;;;;;21.48;4.00;;;2.30;99.90;;;;;;4997235;27;20043;-87
2022/01/06 10:01:41;;;;;;;21.20;4.45;;;2.40;99.90;;;;;;5005512;27;20044;-88
2022/01/06 10:04:17;;;;;;;22.10;4.45;;;2.50;99.90;;;;;;5012990;27;20529;-86
2022/01/06 10:06:56;;;;;;;19.13;4.10;;;2.70;99.90;;;;;;4987168;27;20308;-87
2022/01/06 10:09:24;;;;;;;26.05;4.47;;;2.80;99.90;;;;;;5020125;27;20036;-88
2022/01/06 10:11:56;;;;;;;23.08;4.47;;;2.90;99.90;;;;;;5023034;27;20844;-87
2022/01/06 10:14:30;;;;;;;20.05;4.22;;;3.00;99.90;;;;;;5020269;27;20553;-89
2022/01/06 10:16:58;;;;;;;17.42;3.95;;;3.20;99.90;;;;;;5005912;27;20081;-87
2022/01/06 10:19:24;;;;;;;22.33;4.25;;;3.30;99.90;;;;;;5018854;28;20044;-90
2022/01/06 10:21:57;;;;;;;23.02;4.50;;;3.40;99.90;;;;;;5026239;27;20598;-91
2022/01/06 10:24:25;;;;;;;25.03;4.20;;;3.50;99.90;;;;;;5025693;28;20493;-90
2022/01/06 10:26:58;;;;;;;21.05;3.88;;;3.60;99.90;;;;;;5009699;27;20727;-89
2022/01/06 10:29:26;;;;;;;20.55;3.80;;;3.70;99.90;;;;;;5026340;27;20546;-89
2022/01/06 10:32:00;;;;;;;20.10;4.30;;;3.70;99.90;;;;;;5006224;27;20043;-89
2022/01/06 10:34:36;;;;;;;20.63;3.92;;;3.80;99.90;;;;;;5013114;27;20052;-89
2022/01/06 10:37:06;;;;;;;21.35;4.18;;;4.00;99.90;;;;;;5027112;27;20528;-89
2022/01/06 10:39:43;;;;;;;20.98;5.03;;;4.00;99.90;;;;;;4995785;27;20191;-88
2022/01/06 10:42:10;;;;;;;20.13;4.75;;;4.10;99.90;;;;;;5010837;27;20404;-90
2022/01/06 10:44:50;;;;;;;20.50;4.07;;;4.20;99.90;;;;;;5027314;27;20059;-88
2022/01/06 10:47:50;;;;;;;19.15;3.72;;;4.20;99.90;;;;;;5025678;27;20047;-88
2022/01/06 10:50:25;;;;;;;20.63;4.05;;;4.20;99.90;;;;;;4954920;27;20055;-90
2022/01/06 10:53:11;;;;;;;18.38;3.78;;;4.30;99.90;;;;;;5005716;28;20047;-87
2022/01/06 10:55:43;;;;;;;20.65;3.95;;;4.30;99.90;;;;;;5017022;28;20058;-87
2022/01/06 10:58:12;;;;;;;18.83;3.53;;;4.40;99.90;;;;;;5025136;28;20736;-87
2022/01/06 11:00:42;;;;;;;19.63;3.90;;;4.40;99.90;;;;;;5004651;28;20051;-89
2022/01/06 11:03:12;;;;;;;17.90;3.85;;;4.50;99.90;;;;;;5015761;28;20051;-87
2022/01/06 11:05:51;;;;;;;21.77;4.13;;;4.60;99.90;;;;;;5015141;28;20918;-89
2022/01/06 11:08:28;;;;;;;21.40;4.00;;;4.40;99.90;;;;;;5003449;27;20654;-90
2022/01/06 11:11:44;;;;;;;20.30;3.92;;;4.40;99.90;;;;;;5000102;28;20063;-88
2022/01/06 11:13:51;;;;;;;18.52;3.55;;;4.60;99.90;;;;;;5012491;28;20083;-87
2022/01/06 11:16:18;;;;;;;21.27;4.45;;;4.90;99.90;;;;;;5012168;28;20927;-88
2022/01/06 11:18:55;;;;;;;19.50;3.78;;;5.00;99.90;;;;;;4978465;28;20405;-88
2022/01/06 11:21:35;;;;;;;21.75;3.90;;;5.10;99.90;;;;;;4987243;28;20389;-88
2022/01/06 11:24:24;;;;;;;17.63;3.58;;;5.20;99.90;;;;;;5008553;28;20119;-87
2022/01/06 11:27:11;;;;;;;19.25;4.32;;;5.20;99.90;;;;;;5006449;28;20048;-88
2022/01/06 11:29:44;;;;;;;20.27;3.80;;;5.30;99.90;;;;;;5010374;28;20047;-89
2022/01/06 11:32:21;;;;;;;15.80;3.58;;;5.10;99.90;;;;;;5008084;28;20036;-89
2022/01/06 11:34:51;;;;;;;25.70;4.10;;;5.00;99.90;;;;;;4997852;28;20529;-87
2022/01/06 11:37:17;;;;;;;20.15;4.22;;;4.80;99.90;;;;;;5001113;28;20643;-88
2022/01/06 11:39:43;;;;;;;20.63;4.05;;;4.80;99.90;;;;;;4991064;28;20040;-88
2022/01/06 11:42:18;;;;;;;18.77;3.90;;;4.80;99.90;;;;;;5001241;28;20044;-89
2022/01/06 11:44:53;;;;;;;19.05;4.20;;;4.70;99.90;;;;;;5016377;28;21016;-88
2022/01/06 11:47:37;;;;;;;20.92;4.43;;;4.80;99.90;;;;;;5020926;28;20125;-89
2022/01/06 11:50:18;;;;;;;24.00;4.72;;;4.80;99.90;;;;;;4993246;28;20508;-89
2022/01/06 11:52:56;;;;;;;17.95;4.43;;;4.90;99.90;;;;;;5008233;28;20142;-88
2022/01/06 11:55:23;;;;;;;21.98;4.40;;;4.90;99.90;;;;;;5010688;28;20720;-88
2022/01/06 11:57:49;;;;;;;21.42;4.10;;;5.00;99.90;;;;;;4993756;28;20588;-88
2022/01/06 12:00:24;;;;;;;21.73;4.40;;;5.10;99.90;;;;;;5000861;28;20074;-88
2022/01/06 12:03:07;;;;;;;26.70;4.70;;;5.10;99.90;;;;;;5018272;28;20067;-88
2022/01/06 12:05:44;;;;;;;21.92;4.70;;;5.20;99.90;;;;;;5006818;28;20048;-88
2022/01/06 12:08:11;;;;;;;20.25;3.92;;;5.50;99.90;;;;;;5007006;28;20810;-90
2022/01/06 12:10:54;;;;;;;22.08;4.63;;;5.70;99.90;;;;;;4999742;28;20051;-90
2022/01/06 12:13:20;;;;;;;;;;;6.00;99.90;;;;;;5008202;28;20890;-89
2022/01/06 12:15:54;;;;;;;23.98;4.40;;;6.10;99.90;;;;;;5010531;28;20012;-88
2022/01/06 12:18:27;;;;;;;20.02;4.10;;;6.20;99.90;;;;;;5013846;28;20404;-87
2022/01/06 12:20:56;;;;;;;20.88;3.83;;;6.40;99.90;;;;;;4998726;28;20071;-90
2022/01/06 12:23:24;;;;;;;18.55;3.28;;;6.50;99.90;;;;;;5023125;28;20097;-84
2022/01/06 12:26:03;;;;;;;24.17;3.88;;;6.50;99.90;;;;;;4985544;28;20550;-87
2022/01/06 12:28:32;;;;;;;19.77;3.47;;;6.60;99.90;;;;;;5013225;28;20568;-88
2022/01/06 12:31:04;;;;;;;19.83;3.90;;;6.70;99.90;;;;;;5001501;28;20082;-88
2022/01/06 12:33:31;;;;;;;22.58;4.03;;;6.80;99.90;;;;;;5008080;28;20063;-87
2022/01/06 12:35:58;;;;;;;16.65;3.10;;;6.90;99.90;;;;;;5001511;28;20577;-87
2022/01/06 12:38:33;;;;;;;19.95;3.60;;;6.90;99.90;;;;;;4992558;28;20047;-88
2022/01/06 12:41:00;;;;;;;18.70;3.55;;;7.00;99.90;;;;;;5013795;28;20138;-87
2022/01/06 12:43:28;;;;;;;20.33;3.88;;;7.00;99.90;;;;;;5005928;28;20541;-87
2022/01/06 12:46:08;;;;;;;21.08;3.47;;;7.00;99.90;;;;;;5017189;28;20044;-87
2022/01/06 12:48:41;;;;;;;17.88;3.53;;;7.20;99.90;;;;;;5025255;28;20273;-86
2022/01/06 12:51:10;;;;;;;17.73;3.42;;;7.20;99.90;;;;;;5005645;28;20088;-89
2022/01/06 12:53:48;;;;;;;19.58;3.60;;;7.20;99.90;;;;;;5007562;28;20877;-89
2022/01/06 12:56:29;;;;;;;19.38;3.42;;;7.20;99.90;;;;;;5023391;28;20382;-89
2022/01/06 12:59:00;;;;;;;20.08;3.40;;;7.20;99.90;;;;;;5011384;28;20039;-91
2022/01/06 13:01:31;;;;;;;21.77;3.70;;;7.10;99.90;;;;;;5005833;28;20553;-89
2022/01/06 13:03:57;;;;;;;17.67;3.45;;;7.10;99.90;;;;;;5003363;28;20051;-88